sensor_id;sensor_type;location;lat;lon;timestamp;P1;durP1;ratioP1;P2;durP2;ratioP2
974;SDS011;6115;49.296;10.602;2024-01-11T00:04:27;68.30;;;8.60;;
974;SDS011;6115;49.296;10.602;2024-01-11T00:09:28;72.10;;;9.53;;
974;SDS011;6115;49.296;10.602;2024-01-11T00:14:28;67.10;;;7.17;;
974;SDS011;6115;49.296;10.602;2024-01-11T00:19:29;69.87;;;9.73;;
974;SDS011;6115;49.296;10.602;2024-01-11T00:24:29;67.70;;;7.67;;
974;SDS011;6115;49.296;10.602;2024-01-11T00:29:30;69.27;;;10.03;;
974;SDS011;6115;49.296;10.602;2024-01-11T00:34:30;68.03;;;7.77;;
974;SDS011;6115;49.296;10.602;2024-01-11T00:39:31;67.50;;;8.37;;
974;SDS011;6115;49.296;10.602;2024-01-11T00:44:32;69.50;;;9.57;;
974;SDS011;6115;49.296;10.602;2024-01-11T00:49:32;69.10;;;8.40;;
974;SDS011;6115;49.296;10.602;2024-01-11T00:54:33;67.77;;;7.83;;
974;SDS011;6115;49.296;10.602;2024-01-11T00:59:34;67.80;;;8.00;;
974;SDS011;6115;49.296;10.602;2024-01-11T01:04:37;68.37;;;8.60;;
974;SDS011;6115;49.296;10.602;2024-01-11T01:09:39;67.63;;;8.63;;
974;SDS011;6115;49.296;10.602;2024-01-11T01:14:39;67.57;;;7.80;;
974;SDS011;6115;49.296;10.602;2024-01-11T01:19:40;69.00;;;8.50;;
974;SDS011;6115;49.296;10.602;2024-01-11T01:24:40;67.80;;;7.30;;
974;SDS011;6115;49.296;10.602;2024-01-11T01:29:41;66.43;;;6.90;;
974;SDS011;6115;49.296;10.602;2024-01-11T01:34:41;67.83;;;7.50;;
974;SDS011;6115;49.296;10.602;2024-01-11T01:39:42;66.90;;;7.40;;
974;SDS011;6115;49.296;10.602;2024-01-11T01:44:42;67.17;;;7.27;;
974;SDS011;6115;49.296;10.602;2024-01-11T01:49:43;67.00;;;7.03;;
974;SDS011;6115;49.296;10.602;2024-01-11T01:54:44;70.30;;;8.63;;
974;SDS011;6115;49.296;10.602;2024-01-11T01:59:46;66.60;;;6.97;;
974;SDS011;6115;49.296;10.602;2024-01-11T02:04:51;67.30;;;7.80;;
974;SDS011;6115;49.296;10.602;2024-01-11T02:09:51;67.27;;;7.70;;
974;SDS011;6115;49.296;10.602;2024-01-11T02:14:53;68.07;;;9.27;;
974;SDS011;6115;49.296;10.602;2024-01-11T02:19:53;66.70;;;7.17;;
974;SDS011;6115;49.296;10.602;2024-01-11T02:24:54;71.13;;;7.90;;
974;SDS011;6115;49.296;10.602;2024-01-11T02:29:54;69.33;;;9.17;;
974;SDS011;6115;49.296;10.602;2024-01-11T02:34:55;72.30;;;7.47;;
974;SDS011;6115;49.296;10.602;2024-01-11T02:39:57;66.97;;;7.30;;
974;SDS011;6115;49.296;10.602;2024-01-11T02:44:58;66.67;;;7.30;;
974;SDS011;6115;49.296;10.602;2024-01-11T02:49:58;67.50;;;8.30;;
974;SDS011;6115;49.296;10.602;2024-01-11T02:54:59;67.80;;;7.20;;
974;SDS011;6115;49.296;10.602;2024-01-11T03:00:00;66.33;;;6.53;;
974;SDS011;6115;49.296;10.602;2024-01-11T03:05:00;66.53;;;7.10;;
974;SDS011;6115;49.296;10.602;2024-01-11T03:10:01;67.70;;;8.93;;
974;SDS011;6115;49.296;10.602;2024-01-11T03:15:01;66.90;;;7.40;;
974;SDS011;6115;49.296;10.602;2024-01-11T03:20:02;67.80;;;8.17;;
974;SDS011;6115;49.296;10.602;2024-01-11T03:25:04;67.77;;;8.67;;
974;SDS011;6115;49.296;10.602;2024-01-11T03:30:05;69.53;;;9.23;;
974;SDS011;6115;49.296;10.602;2024-01-11T03:35:07;67.57;;;8.40;;
974;SDS011;6115;49.296;10.602;2024-01-11T03:40:08;67.73;;;9.13;;
974;SDS011;6115;49.296;10.602;2024-01-11T03:45:09;68.27;;;8.70;;
974;SDS011;6115;49.296;10.602;2024-01-11T03:50:10;68.10;;;8.63;;
974;SDS011;6115;49.296;10.602;2024-01-11T03:55:11;66.90;;;7.80;;
974;SDS011;6115;49.296;10.602;2024-01-11T04:00:11;67.60;;;8.53;;
974;SDS011;6115;49.296;10.602;2024-01-11T04:05:12;67.00;;;8.00;;
974;SDS011;6115;49.296;10.602;2024-01-11T04:10:14;68.67;;;9.20;;
974;SDS011;6115;49.296;10.602;2024-01-11T04:15:17;67.83;;;8.43;;
974;SDS011;6115;49.296;10.602;2024-01-11T04:20:17;68.93;;;7.97;;
974;SDS011;6115;49.296;10.602;2024-01-11T04:25:18;68.17;;;8.97;;
974;SDS011;6115;49.296;10.602;2024-01-11T04:30:19;66.87;;;8.00;;
974;SDS011;6115;49.296;10.602;2024-01-11T04:35:19;70.10;;;9.07;;
974;SDS011;6115;49.296;10.602;2024-01-11T04:40:20;71.63;;;11.13;;
974;SDS011;6115;49.296;10.602;2024-01-11T04:45:20;70.70;;;8.90;;
974;SDS011;6115;49.296;10.602;2024-01-11T04:50:21;67.67;;;8.03;;
974;SDS011;6115;49.296;10.602;2024-01-11T04:55:22;73.10;;;10.10;;
974;SDS011;6115;49.296;10.602;2024-01-11T05:00:22;68.37;;;8.93;;
974;SDS011;6115;49.296;10.602;2024-01-11T05:05:23;68.73;;;8.47;;
974;SDS011;6115;49.296;10.602;2024-01-11T05:10:24;66.40;;;7.43;;
974;SDS011;6115;49.296;10.602;2024-01-11T05:15:24;69.10;;;10.20;;
974;SDS011;6115;49.296;10.602;2024-01-11T05:20:25;66.30;;;7.13;;
974;SDS011;6115;49.296;10.602;2024-01-11T05:25:25;66.63;;;7.70;;
974;SDS011;6115;49.296;10.602;2024-01-11T05:30:26;69.97;;;7.97;;
974;SDS011;6115;49.296;10.602;2024-01-11T05:35:29;67.60;;;8.60;;
974;SDS011;6115;49.296;10.602;2024-01-11T05:40:30;67.50;;;8.50;;
974;SDS011;6115;49.296;10.602;2024-01-11T05:45:31;66.67;;;7.23;;
974;SDS011;6115;49.296;10.602;2024-01-11T05:50:33;66.20;;;7.20;;
974;SDS011;6115;49.296;10.602;2024-01-11T05:55:34;67.10;;;8.33;;
974;SDS011;6115;49.296;10.602;2024-01-11T06:00:34;67.20;;;8.17;;
974;SDS011;6115;49.296;10.602;2024-01-11T06:05:35;67.40;;;7.40;;
974;SDS011;6115;49.296;10.602;2024-01-11T06:10:36;76.50;;;10.10;;
974;SDS011;6115;49.296;10.602;2024-01-11T06:15:37;66.73;;;7.80;;
974;SDS011;6115;49.296;10.602;2024-01-11T06:20:38;66.50;;;7.83;;
974;SDS011;6115;49.296;10.602;2024-01-11T06:25:38;68.27;;;8.70;;
974;SDS011;6115;49.296;10.602;2024-01-11T06:30:39;70.20;;;8.50;;
974;SDS011;6115;49.296;10.602;2024-01-11T06:35:39;68.67;;;8.33;;
974;SDS011;6115;49.296;10.602;2024-01-11T06:40:40;67.40;;;8.30;;
974;SDS011;6115;49.296;10.602;2024-01-11T06:45:42;69.67;;;8.57;;
974;SDS011;6115;49.296;10.602;2024-01-11T06:50:43;67.37;;;7.80;;
974;SDS011;6115;49.296;10.602;2024-01-11T06:55:43;73.00;;;9.13;;
974;SDS011;6115;49.296;10.602;2024-01-11T07:00:44;67.20;;;8.10;;
974;SDS011;6115;49.296;10.602;2024-01-11T07:05:44;65.97;;;6.80;;
974;SDS011;6115;49.296;10.602;2024-01-11T07:10:45;68.30;;;8.23;;
974;SDS011;6115;49.296;10.602;2024-01-11T07:15:46;70.47;;;10.30;;
974;SDS011;6115;49.296;10.602;2024-01-11T07:20:48;78.30;;;11.17;;
974;SDS011;6115;49.296;10.602;2024-01-11T07:25:48;66.37;;;7.70;;
974;SDS011;6115;49.296;10.602;2024-01-11T07:30:49;67.20;;;8.60;;
974;SDS011;6115;49.296;10.602;2024-01-11T07:35:49;66.50;;;8.10;;
974;SDS011;6115;49.296;10.602;2024-01-11T07:40:50;69.10;;;8.77;;
974;SDS011;6115;49.296;10.602;2024-01-11T07:45:51;68.07;;;8.77;;
974;SDS011;6115;49.296;10.602;2024-01-11T07:50:51;69.27;;;9.63;;
974;SDS011;6115;49.296;10.602;2024-01-11T07:55:52;71.87;;;9.70;;
974;SDS011;6115;49.296;10.602;2024-01-11T08:00:52;69.67;;;10.07;;
974;SDS011;6115;49.296;10.602;2024-01-11T08:05:54;66.90;;;7.97;;
974;SDS011;6115;49.296;10.602;2024-01-11T08:10:54;66.40;;;8.33;;
974;SDS011;6115;49.296;10.602;2024-01-11T08:15:55;72.73;;;8.40;;
974;SDS011;6115;49.296;10.602;2024-01-11T08:20:56;68.20;;;9.07;;
974;SDS011;6115;49.296;10.602;2024-01-11T08:25:56;66.30;;;7.50;;
974;SDS011;6115;49.296;10.602;2024-01-11T08:30:57;67.97;;;8.17;;
974;SDS011;6115;49.296;10.602;2024-01-11T08:35:57;71.23;;;8.07;;
974;SDS011;6115;49.296;10.602;2024-01-11T08:40:58;65.03;;;6.50;;
974;SDS011;6115;49.296;10.602;2024-01-11T08:45:58;66.37;;;8.13;;
974;SDS011;6115;49.296;10.602;2024-01-11T08:50:59;66.90;;;8.07;;
974;SDS011;6115;49.296;10.602;2024-01-11T08:55:59;66.60;;;8.70;;
974;SDS011;6115;49.296;10.602;2024-01-11T09:01:00;67.10;;;8.90;;
974;SDS011;6115;49.296;10.602;2024-01-11T09:06:01;69.80;;;7.00;;
974;SDS011;6115;49.296;10.602;2024-01-11T09:11:03;65.47;;;6.90;;
974;SDS011;6115;49.296;10.602;2024-01-11T09:16:03;67.00;;;7.10;;
974;SDS011;6115;49.296;10.602;2024-01-11T09:21:04;67.70;;;8.13;;
974;SDS011;6115;49.296;10.602;2024-01-11T09:26:05;65.70;;;9.20;;
974;SDS011;6115;49.296;10.602;2024-01-11T09:31:05;69.80;;;8.50;;
974;SDS011;6115;49.296;10.602;2024-01-11T09:36:07;67.40;;;8.20;;
974;SDS011;6115;49.296;10.602;2024-01-11T09:41:08;65.90;;;9.10;;
974;SDS011;6115;49.296;10.602;2024-01-11T09:46:12;69.40;;;9.63;;
974;SDS011;6115;49.296;10.602;2024-01-11T09:51:13;65.73;;;8.30;;
974;SDS011;6115;49.296;10.602;2024-01-11T09:56:13;68.87;;;12.00;;
974;SDS011;6115;49.296;10.602;2024-01-11T10:01:16;76.30;;;11.00;;
974;SDS011;6115;49.296;10.602;2024-01-11T10:06:17;71.67;;;11.00;;
974;SDS011;6115;49.296;10.602;2024-01-11T10:11:17;77.17;;;13.07;;
974;SDS011;6115;49.296;10.602;2024-01-11T10:16:18;77.17;;;15.20;;
974;SDS011;6115;49.296;10.602;2024-01-11T10:21:19;75.83;;;15.00;;
974;SDS011;6115;49.296;10.602;2024-01-11T10:26:19;75.77;;;13.20;;
974;SDS011;6115;49.296;10.602;2024-01-11T10:31:21;76.63;;;13.47;;
974;SDS011;6115;49.296;10.602;2024-01-11T10:36:30;72.87;;;12.40;;
974;SDS011;6115;49.296;10.602;2024-01-11T10:41:32;75.57;;;13.77;;
974;SDS011;6115;49.296;10.602;2024-01-11T10:46:50;70.07;;;11.10;;
974;SDS011;6115;49.296;10.602;2024-01-11T10:52:00;78.40;;;15.10;;
974;SDS011;6115;49.296;10.602;2024-01-11T10:57:03;74.50;;;14.73;;
974;SDS011;6115;49.296;10.602;2024-01-11T11:02:05;78.33;;;13.87;;
974;SDS011;6115;49.296;10.602;2024-01-11T11:07:12;78.57;;;15.77;;
974;SDS011;6115;49.296;10.602;2024-01-11T11:12:15;71.53;;;12.27;;
974;SDS011;6115;49.296;10.602;2024-01-11T11:17:18;79.30;;;13.90;;
974;SDS011;6115;49.296;10.602;2024-01-11T11:22:18;74.40;;;12.00;;
974;SDS011;6115;49.296;10.602;2024-01-11T11:27:20;72.77;;;12.70;;
974;SDS011;6115;49.296;10.602;2024-01-11T11:32:34;73.77;;;13.10;;
974;SDS011;6115;49.296;10.602;2024-01-11T11:37:36;74.70;;;13.20;;
974;SDS011;6115;49.296;10.602;2024-01-11T11:42:38;75.63;;;13.50;;
974;SDS011;6115;49.296;10.602;2024-01-11T11:47:39;71.90;;;12.47;;
974;SDS011;6115;49.296;10.602;2024-01-11T11:52:42;74.57;;;13.60;;
974;SDS011;6115;49.296;10.602;2024-01-11T11:57:44;81.27;;;15.07;;
974;SDS011;6115;49.296;10.602;2024-01-11T12:02:46;81.53;;;13.53;;
974;SDS011;6115;49.296;10.602;2024-01-11T12:07:47;76.07;;;11.83;;
974;SDS011;6115;49.296;10.602;2024-01-11T12:12:48;74.90;;;11.93;;
974;SDS011;6115;49.296;10.602;2024-01-11T12:17:50;74.40;;;12.80;;
974;SDS011;6115;49.296;10.602;2024-01-11T12:22:57;71.47;;;11.93;;
974;SDS011;6115;49.296;10.602;2024-01-11T12:27:58;74.87;;;13.10;;
974;SDS011;6115;49.296;10.602;2024-01-11T12:32:59;78.47;;;12.23;;
974;SDS011;6115;49.296;10.602;2024-01-11T12:38:04;80.43;;;12.57;;
974;SDS011;6115;49.296;10.602;2024-01-11T12:43:06;72.80;;;10.60;;
974;SDS011;6115;49.296;10.602;2024-01-11T12:48:10;70.87;;;10.87;;
974;SDS011;6115;49.296;10.602;2024-01-11T12:53:14;70.20;;;10.00;;
974;SDS011;6115;49.296;10.602;2024-01-11T12:58:21;72.80;;;9.57;;
974;SDS011;6115;49.296;10.602;2024-01-11T13:03:22;68.17;;;9.30;;
974;SDS011;6115;49.296;10.602;2024-01-11T13:08:25;70.67;;;9.33;;
974;SDS011;6115;49.296;10.602;2024-01-11T13:13:27;76.07;;;9.77;;
974;SDS011;6115;49.296;10.602;2024-01-11T13:18:30;76.97;;;12.47;;
974;SDS011;6115;49.296;10.602;2024-01-11T13:23:37;74.17;;;13.10;;
974;SDS011;6115;49.296;10.602;2024-01-11T13:28:39;74.67;;;13.40;;
974;SDS011;6115;49.296;10.602;2024-01-11T13:33:40;72.87;;;10.53;;
974;SDS011;6115;49.296;10.602;2024-01-11T13:38:41;72.63;;;11.80;;
974;SDS011;6115;49.296;10.602;2024-01-11T13:43:41;81.57;;;11.40;;
974;SDS011;6115;49.296;10.602;2024-01-11T13:48:42;70.80;;;9.80;;
974;SDS011;6115;49.296;10.602;2024-01-11T13:53:43;69.20;;;10.40;;
974;SDS011;6115;49.296;10.602;2024-01-11T13:58:43;67.83;;;10.20;;
974;SDS011;6115;49.296;10.602;2024-01-11T14:03:44;76.93;;;11.20;;
974;SDS011;6115;49.296;10.602;2024-01-11T14:08:45;80.80;;;12.40;;
974;SDS011;6115;49.296;10.602;2024-01-11T14:13:45;74.13;;;13.27;;
974;SDS011;6115;49.296;10.602;2024-01-11T14:18:46;82.03;;;11.27;;
974;SDS011;6115;49.296;10.602;2024-01-11T14:23:47;68.97;;;8.70;;
974;SDS011;6115;49.296;10.602;2024-01-11T14:28:47;69.73;;;11.03;;
974;SDS011;6115;49.296;10.602;2024-01-11T14:33:49;68.53;;;7.83;;
974;SDS011;6115;49.296;10.602;2024-01-11T14:38:50;70.00;;;11.00;;
974;SDS011;6115;49.296;10.602;2024-01-11T14:43:50;69.43;;;8.43;;
974;SDS011;6115;49.296;10.602;2024-01-11T14:48:51;72.67;;;10.70;;
974;SDS011;6115;49.296;10.602;2024-01-11T14:53:51;66.50;;;8.83;;
974;SDS011;6115;49.296;10.602;2024-01-11T14:58:52;76.83;;;9.67;;
974;SDS011;6115;49.296;10.602;2024-01-11T15:03:53;71.60;;;11.60;;
974;SDS011;6115;49.296;10.602;2024-01-11T15:08:54;68.87;;;8.83;;
974;SDS011;6115;49.296;10.602;2024-01-11T15:13:55;72.60;;;10.40;;
974;SDS011;6115;49.296;10.602;2024-01-11T15:18:55;66.10;;;8.27;;
974;SDS011;6115;49.296;10.602;2024-01-11T15:23:56;67.57;;;8.60;;
974;SDS011;6115;49.296;10.602;2024-01-11T15:28:59;68.67;;;8.50;;
974;SDS011;6115;49.296;10.602;2024-01-11T15:34:00;70.53;;;9.20;;
974;SDS011;6115;49.296;10.602;2024-01-11T15:39:01;70.20;;;8.90;;
974;SDS011;6115;49.296;10.602;2024-01-11T15:44:02;68.27;;;9.50;;
974;SDS011;6115;49.296;10.602;2024-01-11T15:49:03;70.10;;;9.93;;
974;SDS011;6115;49.296;10.602;2024-01-11T15:54:04;67.73;;;9.50;;
974;SDS011;6115;49.296;10.602;2024-01-11T15:59:05;71.60;;;12.07;;
974;SDS011;6115;49.296;10.602;2024-01-11T16:04:06;68.37;;;8.87;;
974;SDS011;6115;49.296;10.602;2024-01-11T16:09:07;70.13;;;10.57;;
974;SDS011;6115;49.296;10.602;2024-01-11T16:14:09;70.90;;;10.83;;
974;SDS011;6115;49.296;10.602;2024-01-11T16:19:10;68.37;;;10.40;;
974;SDS011;6115;49.296;10.602;2024-01-11T16:24:10;73.57;;;12.00;;
974;SDS011;6115;49.296;10.602;2024-01-11T16:29:11;71.63;;;9.67;;
974;SDS011;6115;49.296;10.602;2024-01-11T16:34:11;70.10;;;10.43;;
974;SDS011;6115;49.296;10.602;2024-01-11T16:39:13;71.80;;;10.57;;
974;SDS011;6115;49.296;10.602;2024-01-11T16:44:14;75.83;;;12.20;;
974;SDS011;6115;49.296;10.602;2024-01-11T16:49:14;74.27;;;11.60;;
974;SDS011;6115;49.296;10.602;2024-01-11T16:54:15;73.27;;;12.37;;
974;SDS011;6115;49.296;10.602;2024-01-11T16:59:15;73.33;;;12.80;;
974;SDS011;6115;49.296;10.602;2024-01-11T17:04:17;77.90;;;13.90;;
974;SDS011;6115;49.296;10.602;2024-01-11T17:09:18;69.43;;;10.00;;
974;SDS011;6115;49.296;10.602;2024-01-11T17:14:19;75.20;;;15.17;;
974;SDS011;6115;49.296;10.602;2024-01-11T17:19:19;74.07;;;11.77;;
974;SDS011;6115;49.296;10.602;2024-01-11T17:24:20;68.73;;;9.93;;
974;SDS011;6115;49.296;10.602;2024-01-11T17:29:20;73.10;;;11.77;;
974;SDS011;6115;49.296;10.602;2024-01-11T17:34:22;72.43;;;10.40;;
974;SDS011;6115;49.296;10.602;2024-01-11T17:39:23;69.20;;;10.80;;
974;SDS011;6115;49.296;10.602;2024-01-11T17:44:25;84.43;;;12.50;;
974;SDS011;6115;49.296;10.602;2024-01-11T17:49:27;74.10;;;11.40;;
974;SDS011;6115;49.296;10.602;2024-01-11T17:54:28;70.67;;;10.77;;
974;SDS011;6115;49.296;10.602;2024-01-11T17:59:28;73.43;;;10.87;;
974;SDS011;6115;49.296;10.602;2024-01-11T18:04:29;73.70;;;13.40;;
974;SDS011;6115;49.296;10.602;2024-01-11T18:09:29;84.33;;;13.33;;
974;SDS011;6115;49.296;10.602;2024-01-11T18:14:30;73.60;;;13.27;;
974;SDS011;6115;49.296;10.602;2024-01-11T18:19:30;76.13;;;13.33;;
974;SDS011;6115;49.296;10.602;2024-01-11T18:24:31;74.17;;;15.40;;
974;SDS011;6115;49.296;10.602;2024-01-11T18:29:35;70.63;;;11.63;;
974;SDS011;6115;49.296;10.602;2024-01-11T18:34:35;68.97;;;10.00;;
974;SDS011;6115;49.296;10.602;2024-01-11T18:39:36;70.57;;;11.03;;
974;SDS011;6115;49.296;10.602;2024-01-11T18:44:41;72.30;;;10.27;;
974;SDS011;6115;49.296;10.602;2024-01-11T18:49:42;70.73;;;10.10;;
974;SDS011;6115;49.296;10.602;2024-01-11T18:54:43;74.20;;;11.27;;
974;SDS011;6115;49.296;10.602;2024-01-11T18:59:43;74.60;;;11.97;;
974;SDS011;6115;49.296;10.602;2024-01-11T19:04:44;70.30;;;10.47;;
974;SDS011;6115;49.296;10.602;2024-01-11T19:09:44;69.40;;;10.37;;
974;SDS011;6115;49.296;10.602;2024-01-11T19:14:45;68.30;;;9.20;;
974;SDS011;6115;49.296;10.602;2024-01-11T19:19:46;70.00;;;10.30;;
974;SDS011;6115;49.296;10.602;2024-01-11T19:24:46;70.90;;;11.77;;
974;SDS011;6115;49.296;10.602;2024-01-11T19:29:47;71.07;;;12.10;;
974;SDS011;6115;49.296;10.602;2024-01-11T19:34:47;75.70;;;13.87;;
974;SDS011;6115;49.296;10.602;2024-01-11T19:39:48;71.87;;;10.00;;
974;SDS011;6115;49.296;10.602;2024-01-11T19:44:49;72.70;;;13.00;;
974;SDS011;6115;49.296;10.602;2024-01-11T19:49:50;68.30;;;8.30;;
974;SDS011;6115;49.296;10.602;2024-01-11T19:54:50;68.93;;;9.57;;
974;SDS011;6115;49.296;10.602;2024-01-11T19:59:51;80.00;;;20.27;;
974;SDS011;6115;49.296;10.602;2024-01-11T20:04:52;75.27;;;15.63;;
974;SDS011;6115;49.296;10.602;2024-01-11T20:09:55;74.60;;;17.30;;
974;SDS011;6115;49.296;10.602;2024-01-11T20:14:55;80.33;;;17.57;;
974;SDS011;6115;49.296;10.602;2024-01-11T20:19:56;76.23;;;17.90;;
974;SDS011;6115;49.296;10.602;2024-01-11T20:24:57;79.00;;;16.70;;
974;SDS011;6115;49.296;10.602;2024-01-11T20:29:57;72.27;;;15.93;;
974;SDS011;6115;49.296;10.602;2024-01-11T20:34:58;73.93;;;16.27;;
974;SDS011;6115;49.296;10.602;2024-01-11T20:39:58;72.60;;;14.00;;
974;SDS011;6115;49.296;10.602;2024-01-11T20:45:00;73.63;;;17.43;;
974;SDS011;6115;49.296;10.602;2024-01-11T20:50:01;73.97;;;15.83;;
974;SDS011;6115;49.296;10.602;2024-01-11T20:55:01;73.70;;;14.73;;
974;SDS011;6115;49.296;10.602;2024-01-11T21:00:04;72.27;;;14.30;;
974;SDS011;6115;49.296;10.602;2024-01-11T21:05:06;75.90;;;16.07;;
974;SDS011;6115;49.296;10.602;2024-01-11T21:10:07;78.73;;;16.60;;
974;SDS011;6115;49.296;10.602;2024-01-11T21:15:07;71.27;;;13.63;;
974;SDS011;6115;49.296;10.602;2024-01-11T21:20:08;74.47;;;15.23;;
974;SDS011;6115;49.296;10.602;2024-01-11T21:25:10;73.17;;;16.20;;
974;SDS011;6115;49.296;10.602;2024-01-11T21:30:12;77.60;;;14.53;;
974;SDS011;6115;49.296;10.602;2024-01-11T21:35:12;74.33;;;15.63;;
974;SDS011;6115;49.296;10.602;2024-01-11T21:40:17;73.07;;;15.30;;
974;SDS011;6115;49.296;10.602;2024-01-11T21:45:19;74.00;;;14.50;;
974;SDS011;6115;49.296;10.602;2024-01-11T21:50:19;71.97;;;13.30;;
974;SDS011;6115;49.296;10.602;2024-01-11T21:55:20;73.73;;;15.97;;
974;SDS011;6115;49.296;10.602;2024-01-11T22:00:20;77.37;;;16.40;;
974;SDS011;6115;49.296;10.602;2024-01-11T22:05:21;73.43;;;15.03;;
974;SDS011;6115;49.296;10.602;2024-01-11T22:10:21;73.00;;;13.50;;
974;SDS011;6115;49.296;10.602;2024-01-11T22:15:22;73.30;;;13.83;;
974;SDS011;6115;49.296;10.602;2024-01-11T22:20:23;73.77;;;13.00;;
974;SDS011;6115;49.296;10.602;2024-01-11T22:25:23;74.20;;;14.47;;
974;SDS011;6115;49.296;10.602;2024-01-11T22:30:24;69.77;;;11.70;;
974;SDS011;6115;49.296;10.602;2024-01-11T22:35:24;74.47;;;12.37;;
974;SDS011;6115;49.296;10.602;2024-01-11T22:40:25;70.13;;;11.57;;
974;SDS011;6115;49.296;10.602;2024-01-11T22:45:25;72.30;;;14.40;;
974;SDS011;6115;49.296;10.602;2024-01-11T22:50:26;77.10;;;16.87;;
974;SDS011;6115;49.296;10.602;2024-01-11T22:55:26;70.13;;;10.73;;
974;SDS011;6115;49.296;10.602;2024-01-11T23:00:27;70.97;;;12.70;;
974;SDS011;6115;49.296;10.602;2024-01-11T23:05:28;71.53;;;11.57;;
974;SDS011;6115;49.296;10.602;2024-01-11T23:10:29;75.07;;;11.20;;
974;SDS011;6115;49.296;10.602;2024-01-11T23:15:30;69.23;;;10.53;;
974;SDS011;6115;49.296;10.602;2024-01-11T23:20:31;72.93;;;11.70;;
974;SDS011;6115;49.296;10.602;2024-01-11T23:25:31;70.43;;;10.80;;
974;SDS011;6115;49.296;10.602;2024-01-11T23:30:32;73.60;;;13.30;;
974;SDS011;6115;49.296;10.602;2024-01-11T23:35:34;70.07;;;10.53;;
974;SDS011;6115;49.296;10.602;2024-01-11T23:40:34;69.67;;;11.30;;
974;SDS011;6115;49.296;10.602;2024-01-11T23:45:35;68.57;;;9.40;;
974;SDS011;6115;49.296;10.602;2024-01-11T23:50:35;70.27;;;12.37;;
974;SDS011;6115;49.296;10.602;2024-01-11T23:55:36;73.07;;;10.10;;
